createdAt,value
2022-11-05T01:01:31.858Z,78.68
2022-11-05T01:06:40.542Z,78.70
2022-11-05T01:32:47.256Z,78.58
2022-11-05T02:03:56.578Z,78.20
2022-11-05T02:24:37.562Z,78.63
2022-11-05T02:35:10.211Z,78.92
2022-11-05T02:40:22.218Z,78.35
2022-11-05T02:45:38.307Z,78.91
2022-11-05T02:56:24.165Z,78.32
2022-11-05T03:01:27.272Z,78.78
2022-11-05T03:17:42.803Z,78.86
2022-11-05T03:22:52.580Z,79.06
2022-11-05T03:28:01.928Z,79.54
2022-11-05T03:33:15.790Z,79.74
2022-11-05T03:38:25.743Z,79.50
2022-11-05T03:43:34.044Z,79.73
2022-11-05T03:48:48.381Z,79.99
2022-11-05T03:53:56.894Z,79.82
2022-11-05T03:59:02.687Z,80.53
2022-11-05T04:04:13.855Z,80.87
2022-11-05T04:09:19.011Z,80.47
2022-11-05T04:14:21.930Z,80.86
2022-11-05T04:19:30.196Z,80.80
2022-11-05T04:24:33.935Z,80.50
2022-11-05T04:29:37.955Z,80.62
2022-11-05T04:34:46.226Z,80.60
2022-11-05T04:39:49.970Z,80.23
2022-11-05T04:50:19.785Z,79.64
2022-11-05T04:55:23.906Z,79.83
2022-11-05T05:05:47.550Z,79.57
2022-11-05T05:10:50.800Z,79.85
2022-11-05T05:15:53.528Z,80.00
2022-11-05T05:21:05.027Z,80.04
2022-11-05T05:26:09.031Z,79.64
2022-11-05T05:36:34.969Z,79.40
2022-11-05T05:41:38.718Z,79.60
2022-11-05T05:46:42.687Z,79.66
2022-11-05T05:51:51.898Z,79.54
2022-11-05T05:56:54.717Z,79.37
2022-11-05T06:01:57.803Z,79.40
2022-11-05T06:07:06.027Z,79.44
2022-11-05T06:12:09.390Z,79.34
2022-11-05T06:17:12.147Z,79.31
2022-11-05T06:22:20.573Z,79.26
2022-11-05T06:27:23.555Z,79.12
2022-11-05T06:32:26.557Z,79.16
2022-11-05T06:37:35.079Z,79.34
2022-11-05T06:42:39.007Z,79.32
2022-11-05T06:47:41.812Z,79.29
2022-11-05T06:52:54.665Z,79.27
2022-11-05T06:57:59.645Z,79.17
2022-11-05T07:03:06.171Z,79.32
2022-11-05T07:08:14.931Z,79.36
2022-11-05T07:13:17.910Z,79.41
2022-11-05T07:18:21.052Z,79.58
2022-11-05T07:23:29.239Z,79.64
2022-11-05T07:28:31.954Z,79.67
2022-11-05T07:33:36.711Z,79.73
2022-11-05T07:38:45.019Z,79.80
2022-11-05T07:43:47.814Z,79.73
2022-11-05T07:48:50.591Z,79.82
2022-11-05T07:53:58.830Z,79.96
2022-11-05T08:04:28.226Z,79.61
2022-11-05T08:09:31.270Z,79.94
2022-11-05T08:14:34.221Z,80.18
2022-11-05T08:30:23.252Z,78.90
2022-11-05T08:35:27.348Z,77.44
2022-11-05T08:40:33.543Z,75.79
2022-11-05T08:45:42.660Z,74.58
2022-11-05T08:55:59.302Z,74.03
2022-11-05T09:01:08.861Z,73.11
2022-11-05T09:17:04.782Z,71.41
2022-11-05T09:22:07.577Z,70.62
2022-11-05T09:27:11.729Z,69.03
2022-11-05T09:32:20.025Z,68.41
2022-11-05T09:37:23.208Z,69.41
2022-11-05T09:42:31.978Z,67.18
2022-11-05T09:47:43.917Z,67.39
2022-11-05T09:52:48.022Z,67.00
2022-11-05T09:57:56.588Z,65.22
2022-11-05T10:03:09.512Z,65.46
2022-11-05T10:08:26.805Z,65.68
2022-11-05T10:13:36.366Z,63.82
2022-11-05T10:18:56.783Z,64.64
2022-11-05T10:29:31.445Z,63.51
2022-11-05T10:34:38.479Z,62.76
2022-11-05T10:39:41.341Z,59.96
2022-11-05T10:45:00.363Z,59.82
2022-11-05T10:50:07.381Z,61.19
2022-11-05T10:55:24.783Z,58.59
2022-11-05T11:00:42.373Z,60.41
2022-11-05T11:05:52.545Z,60.14
2022-11-05T11:16:27.625Z,59.68
2022-11-05T11:27:05.401Z,59.29
2022-11-05T11:32:15.281Z,59.10
2022-11-05T11:37:23.392Z,57.95
2022-11-05T11:42:37.063Z,57.11
2022-11-05T11:47:46.174Z,58.55
2022-11-05T11:52:50.866Z,56.41
2022-11-05T12:03:50.484Z,58.29
2022-11-05T12:09:06.735Z,58.07
2022-11-05T12:14:25.391Z,57.13
2022-11-05T12:19:51.439Z,57.69
2022-11-05T12:25:13.766Z,58.96
2022-11-05T12:30:18.673Z,59.44
2022-11-05T12:35:48.101Z,57.85
2022-11-05T12:41:14.297Z,59.46
2022-11-05T12:46:29.554Z,58.61
2022-11-05T12:56:57.799Z,59.25
2022-11-05T13:07:30.611Z,58.43
2022-11-05T13:12:38.385Z,59.85
2022-11-05T13:17:50.502Z,58.03
2022-11-05T13:23:03.799Z,59.46
2022-11-05T13:28:15.592Z,59.75
2022-11-05T13:33:23.617Z,59.05
2022-11-05T13:49:54.976Z,60.36
2022-11-05T14:00:44.899Z,61.30
2022-11-05T14:11:21.502Z,61.58
2022-11-05T14:16:27.272Z,61.00
2022-11-05T14:38:21.572Z,62.30
2022-11-05T14:48:54.138Z,61.97
2022-11-05T14:54:05.626Z,62.15
2022-11-05T14:59:35.534Z,61.74
2022-11-05T15:04:45.631Z,62.58
2022-11-05T15:09:56.357Z,62.41
2022-11-05T15:20:26.166Z,63.17
2022-11-05T15:31:36.247Z,64.04
2022-11-05T15:36:39.608Z,64.03
2022-11-05T15:41:42.627Z,63.78
2022-11-05T15:47:07.139Z,64.24
2022-11-05T15:52:13.412Z,64.88
2022-11-05T15:57:26.478Z,64.92
2022-11-05T16:02:37.803Z,65.34
2022-11-05T16:07:44.056Z,65.61
2022-11-05T16:12:46.875Z,65.79
2022-11-05T16:17:58.378Z,65.78
2022-11-05T16:23:05.551Z,66.21
2022-11-05T16:28:22.224Z,66.31
2022-11-05T16:33:36.247Z,66.55
2022-11-05T16:38:42.309Z,66.71
2022-11-05T16:43:53.835Z,66.74
2022-11-05T16:54:24.489Z,67.09
2022-11-05T16:59:27.354Z,67.33
2022-11-05T17:04:30.295Z,67.43
2022-11-05T17:09:39.768Z,67.52
2022-11-05T17:14:42.835Z,67.67
2022-11-05T17:19:46.635Z,67.71
2022-11-05T17:24:55.621Z,67.95
2022-11-05T17:29:58.537Z,68.03
2022-11-05T17:35:01.511Z,68.26
2022-11-05T17:45:37.034Z,68.26
2022-11-05T17:50:44.262Z,68.52
2022-11-05T17:55:49.155Z,68.83
2022-11-05T18:00:57.478Z,68.93
2022-11-05T18:06:03.854Z,69.10
2022-11-05T18:11:06.889Z,69.36
2022-11-05T18:21:39.073Z,69.19
2022-11-05T18:26:41.799Z,69.51
2022-11-05T18:31:45.792Z,69.97
2022-11-05T18:58:26.329Z,70.20
2022-11-05T19:03:31.225Z,70.63
2022-11-05T19:08:41.260Z,71.00
2022-11-05T19:19:12.820Z,70.59
2022-11-05T19:24:18.908Z,71.05
2022-11-05T19:29:21.846Z,71.57
2022-11-05T19:34:30.931Z,71.71
2022-11-05T19:45:23.131Z,71.12
2022-11-05T19:55:59.250Z,71.24
2022-11-05T20:01:02.327Z,71.24
2022-11-05T20:06:07.669Z,71.85
2022-11-05T20:16:47.480Z,71.42
2022-11-05T20:21:50.336Z,72.20
2022-11-05T20:32:14.646Z,72.24
2022-11-05T20:42:44.726Z,72.28
2022-11-05T20:47:48.223Z,72.69
2022-11-05T20:52:51.162Z,73.03
2022-11-05T20:57:59.228Z,73.21
2022-11-05T21:03:02.229Z,72.97
2022-11-05T21:08:05.479Z,73.17
2022-11-05T21:13:13.913Z,73.09
2022-11-05T21:23:39.725Z,72.37
2022-11-05T21:28:44.057Z,72.64
2022-11-05T21:33:50.935Z,72.87
2022-11-05T21:39:06.620Z,73.06
2022-11-05T21:44:13.274Z,72.71
2022-11-05T21:49:16.599Z,73.00
2022-11-05T21:54:25.425Z,73.18
2022-11-05T21:59:29.159Z,72.92
2022-11-05T22:15:19.181Z,72.80
2022-11-05T22:20:21.919Z,73.41
2022-11-05T22:25:24.754Z,74.20
2022-11-05T22:30:34.118Z,74.27
2022-11-05T22:35:39.792Z,74.01
2022-11-05T22:40:42.689Z,74.30
2022-11-05T22:45:53.904Z,74.26
2022-11-05T22:50:56.668Z,73.80
2022-11-05T23:01:24.093Z,73.42
2022-11-05T23:11:54.996Z,73.26
2022-11-05T23:54:00.347Z,75.79
2022-11-05T23:59:03.965Z,73.94
